Weather at Václav Havel Airport Prague

Public forecast

Using degrees Celsius for public forecast. Weather courtesy of forecast.io.

Current aviation weather report (METAR) for Václav Havel Airport Prague

Report is more than 6 hours old.

2022/11/14 15:30 (retrieved 2 years ago)

LKPR 141530Z 10005KT CAVOK 07/05 Q1018 NOSIG

Aviation forecast (TAF) for Václav Havel Airport Prague

Forecast is more than 12 hours old.

2023/02/22 21:12 (retrieved 1 year ago)

TAF LKPR 222000Z 2221/2403 15006KT CAVOK TEMPO 2300/2306 5000 BR NSC BECMG 2310/2313 23004KT 9999 BKN025 BECMG 2318/2320 24010KT PROB30 TEMPO 2318/2403 -RA BKN017